createdAt,value
2018-09-19T00:01:08.733Z,16.73
2018-09-19T00:03:35.888Z,11.67
2018-09-19T00:06:03.051Z,16.57
2018-09-19T00:08:30.176Z,14.30
2018-09-19T00:10:57.318Z,18.10
2018-09-19T00:13:24.492Z,13.37
2018-09-19T00:15:51.708Z,13.60
2018-09-19T00:18:18.829Z,16.40
2018-09-19T00:20:45.972Z,14.90
2018-09-19T00:23:13.119Z,14.00
2018-09-19T00:25:40.232Z,13.30
2018-09-19T00:28:07.428Z,14.97
2018-09-19T00:30:34.612Z,14.53
2018-09-19T00:33:01.755Z,16.10
2018-09-19T00:35:28.892Z,16.77
2018-09-19T00:37:56.028Z,17.37
2018-09-19T00:40:23.176Z,16.10
2018-09-19T00:42:50.311Z,18.43
2018-09-19T00:45:17.453Z,17.83
2018-09-19T00:47:44.600Z,18.80
2018-09-19T00:50:11.730Z,16.80
2018-09-19T00:52:38.848Z,20.20
2018-09-19T00:55:05.986Z,18.60
2018-09-19T00:57:33.128Z,12.70
2018-09-19T01:00:00.272Z,18.53
2018-09-19T01:02:27.436Z,16.77
2018-09-19T01:04:54.552Z,17.27
2018-09-19T01:07:21.691Z,17.70
2018-09-19T01:09:48.860Z,18.00
2018-09-19T01:12:16.012Z,20.03
2018-09-19T01:14:43.150Z,19.87
2018-09-19T01:17:10.262Z,19.23
2018-09-19T01:19:37.391Z,18.33
2018-09-19T01:22:04.568Z,21.73
2018-09-19T01:24:31.722Z,19.27
2018-09-19T01:26:58.879Z,16.67
2018-09-19T01:29:26.012Z,18.13
2018-09-19T01:31:53.624Z,20.23
2018-09-19T01:34:20.807Z,18.40
2018-09-19T01:36:47.962Z,23.87
2018-09-19T01:39:15.080Z,18.43
2018-09-19T01:41:42.259Z,21.27
2018-09-19T01:44:09.394Z,17.30
2018-09-19T01:46:36.521Z,21.30
2018-09-19T01:49:03.676Z,18.97
2018-09-19T01:51:30.853Z,21.97
2018-09-19T01:53:58.014Z,19.57
2018-09-19T01:56:25.124Z,17.50
2018-09-19T01:58:52.228Z,19.10
2018-09-19T02:01:19.379Z,20.23
2018-09-19T02:03:47.092Z,19.37
2018-09-19T02:06:14.276Z,20.10
2018-09-19T02:08:41.411Z,16.63
2018-09-19T02:11:08.548Z,18.67
2018-09-19T02:13:35.689Z,17.53
2018-09-19T02:16:02.864Z,19.90
2018-09-19T02:18:30.031Z,23.47
2018-09-19T02:20:57.174Z,18.17
2018-09-19T02:23:24.300Z,16.23
2018-09-19T02:25:51.412Z,23.33
2018-09-19T02:28:18.622Z,19.37
2018-09-19T02:30:45.750Z,18.30
2018-09-19T02:33:12.857Z,16.20
2018-09-19T02:35:40.020Z,16.83
2018-09-19T02:38:07.145Z,20.87
2018-09-19T02:40:34.285Z,14.43
2018-09-19T02:43:01.472Z,21.13
2018-09-19T02:45:28.591Z,15.60
2018-09-19T02:47:55.726Z,19.77
2018-09-19T02:50:22.849Z,18.40
2018-09-19T02:52:54.435Z,18.60
2018-09-19T02:55:21.707Z,19.13
2018-09-19T02:57:48.835Z,16.17
2018-09-19T03:00:16.057Z,20.97
2018-09-19T03:02:43.384Z,19.87
2018-09-19T03:05:10.529Z,17.03
2018-09-19T03:07:37.651Z,17.07
2018-09-19T03:10:05.155Z,17.90
2018-09-19T03:12:32.317Z,19.47
2018-09-19T03:14:59.510Z,17.77
2018-09-19T03:17:26.705Z,15.20
2018-09-19T03:19:53.853Z,20.30
2018-09-19T03:22:20.988Z,16.80
2018-09-19T03:24:48.097Z,18.27
2018-09-19T03:27:15.224Z,18.33
2018-09-19T03:29:42.339Z,18.77
2018-09-19T03:32:09.469Z,20.20
2018-09-19T03:34:36.588Z,17.70
2018-09-19T03:37:03.716Z,19.17
2018-09-19T03:39:30.828Z,15.60
2018-09-19T03:41:57.971Z,17.50
2018-09-19T03:44:25.090Z,17.00
2018-09-19T03:46:52.216Z,19.63
2018-09-19T03:49:19.399Z,16.87
2018-09-19T03:51:46.545Z,17.10
2018-09-19T03:54:13.699Z,18.30
2018-09-19T03:56:40.819Z,19.30
2018-09-19T03:59:08.375Z,20.33
2018-09-19T04:01:35.519Z,17.43
2018-09-19T04:04:02.673Z,17.03
2018-09-19T04:06:29.792Z,17.20
2018-09-19T04:08:56.925Z,19.23
2018-09-19T04:11:24.124Z,20.37
2018-09-19T04:13:51.245Z,22.77
2018-09-19T04:16:18.389Z,17.13
2018-09-19T04:18:45.569Z,22.37
2018-09-19T04:21:12.753Z,18.93
2018-09-19T04:23:39.888Z,18.87
2018-09-19T04:26:07.063Z,21.93
2018-09-19T04:28:34.184Z,20.53
2018-09-19T04:31:01.406Z,20.30
2018-09-19T04:33:28.541Z,21.50
2018-09-19T04:35:55.693Z,19.20
2018-09-19T04:38:22.816Z,17.53
2018-09-19T04:40:49.972Z,19.27
2018-09-19T04:43:17.108Z,18.37
2018-09-19T04:45:44.309Z,21.00
2018-09-19T04:48:11.444Z,20.53
2018-09-19T04:50:38.625Z,20.90
2018-09-19T04:53:05.755Z,23.27
2018-09-19T04:55:32.921Z,20.97
2018-09-19T04:58:00.064Z,18.60
2018-09-19T05:00:27.178Z,21.67
2018-09-19T05:02:54.372Z,20.07
2018-09-19T05:05:21.511Z,19.07
2018-09-19T05:07:48.647Z,21.27
2018-09-19T05:10:15.780Z,21.63
2018-09-19T05:12:42.901Z,25.83
2018-09-19T05:15:10.023Z,22.17
2018-09-19T05:17:37.157Z,16.80
2018-09-19T05:20:04.352Z,22.00
2018-09-19T05:22:31.476Z,22.30
2018-09-19T05:24:58.609Z,21.13
2018-09-19T05:27:25.740Z,21.37
2018-09-19T05:29:52.875Z,24.43
2018-09-19T05:32:20.013Z,23.33
2018-09-19T05:34:47.542Z,19.00
2018-09-19T05:37:14.669Z,18.67
2018-09-19T05:39:41.799Z,21.67
2018-09-19T05:42:08.935Z,20.03
2018-09-19T05:44:36.088Z,19.63
2018-09-19T05:47:03.244Z,18.67
2018-09-19T05:49:30.447Z,22.20
2018-09-19T05:51:57.588Z,23.47
2018-09-19T05:54:24.786Z,22.67
2018-09-19T05:56:51.851Z,26.57
2018-09-19T05:59:18.998Z,21.70
2018-09-19T06:01:46.124Z,25.17
2018-09-19T06:04:13.261Z,28.20
2018-09-19T06:06:40.442Z,25.00
2018-09-19T06:09:09.102Z,22.63
2018-09-19T06:11:36.280Z,20.77
2018-09-19T06:14:03.435Z,21.20
2018-09-19T06:16:30.612Z,18.03
2018-09-19T06:18:57.748Z,24.17
2018-09-19T06:21:24.924Z,22.43
2018-09-19T06:23:52.057Z,22.13
2018-09-19T06:26:19.364Z,20.27
2018-09-19T06:28:46.573Z,19.60
2018-09-19T06:31:13.719Z,22.10
2018-09-19T06:33:40.854Z,20.90
2018-09-19T06:36:08.055Z,19.47
2018-09-19T06:38:35.194Z,21.40
2018-09-19T06:41:02.461Z,23.63
2018-09-19T06:43:29.498Z,23.97
2018-09-19T06:45:56.636Z,21.63
2018-09-19T06:48:23.772Z,23.63
2018-09-19T06:50:50.909Z,20.53
2018-09-19T06:53:18.074Z,19.47
2018-09-19T06:55:45.208Z,23.07
2018-09-19T06:58:12.397Z,21.13
2018-09-19T07:00:39.539Z,18.67
2018-09-19T07:03:06.676Z,21.07
2018-09-19T07:05:33.845Z,18.13
2018-09-19T07:08:00.984Z,19.13
2018-09-19T07:10:28.142Z,17.50
2018-09-19T07:12:55.303Z,16.97
2018-09-19T07:15:22.456Z,16.70
2018-09-19T07:17:49.599Z,17.83
2018-09-19T07:20:16.737Z,15.70
2018-09-19T07:22:43.886Z,19.57
2018-09-19T07:25:11.117Z,13.00
2018-09-19T07:27:38.208Z,13.53
2018-09-19T07:30:08.074Z,16.43
2018-09-19T07:32:35.328Z,17.73
2018-09-19T07:35:02.504Z,15.13
2018-09-19T07:37:29.642Z,15.37
2018-09-19T07:39:56.782Z,18.90
2018-09-19T07:42:23.901Z,16.37
2018-09-19T07:44:51.044Z,15.07
2018-09-19T07:47:18.188Z,17.17
2018-09-19T07:49:45.329Z,15.17
2018-09-19T07:52:12.497Z,14.97
2018-09-19T07:54:39.680Z,18.07
2018-09-19T07:57:06.805Z,14.20
2018-09-19T07:59:33.948Z,16.27
2018-09-19T08:02:01.519Z,19.80
2018-09-19T08:04:28.653Z,14.53
2018-09-19T08:06:55.841Z,18.40
2018-09-19T08:09:22.983Z,15.67
2018-09-19T08:11:50.159Z,16.77
2018-09-19T08:14:17.274Z,15.57
2018-09-19T08:16:44.436Z,17.03
2018-09-19T08:19:11.554Z,14.93
2018-09-19T08:21:38.696Z,23.03
2018-09-19T08:24:05.947Z,17.80
2018-09-19T08:26:33.097Z,13.40
2018-09-19T08:29:00.255Z,18.13
2018-09-19T08:31:27.366Z,18.27
2018-09-19T08:33:54.523Z,14.97
2018-09-19T08:36:21.657Z,14.70
2018-09-19T08:38:48.788Z,17.80
2018-09-19T08:41:15.936Z,17.33
2018-09-19T08:43:43.049Z,14.27
2018-09-19T08:46:10.252Z,17.23
2018-09-19T08:48:37.431Z,18.80
2018-09-19T08:51:04.632Z,14.93
2018-09-19T08:53:31.761Z,19.13
2018-09-19T08:55:58.883Z,20.63
2018-09-19T08:58:26.013Z,21.77
2018-09-19T09:00:53.170Z,18.47
2018-09-19T09:03:20.299Z,17.73
2018-09-19T09:05:47.445Z,15.03
2018-09-19T09:08:14.583Z,15.63
2018-09-19T09:10:41.753Z,16.90
2018-09-19T09:13:08.918Z,17.43
2018-09-19T09:15:36.062Z,14.93
2018-09-19T09:18:03.205Z,12.57
2018-09-19T09:20:30.367Z,12.07
2018-09-19T09:22:57.492Z,15.30
2018-09-19T09:25:24.637Z,12.40
2018-09-19T09:27:51.791Z,13.27
2018-09-19T09:30:20.053Z,13.27
2018-09-19T09:32:47.190Z,10.13
2018-09-19T09:35:14.332Z,13.57
2018-09-19T09:37:41.452Z,13.67
2018-09-19T09:40:08.593Z,13.63
2018-09-19T09:42:35.728Z,13.53
2018-09-19T09:45:02.881Z,12.80
2018-09-19T09:47:30.019Z,11.97
2018-09-19T09:49:57.143Z,13.33
2018-09-19T09:52:24.260Z,12.50
2018-09-19T09:54:51.387Z,13.70
2018-09-19T09:57:18.504Z,13.43
2018-09-19T09:59:45.748Z,13.57
2018-09-19T10:02:12.862Z,13.30
2018-09-19T10:04:40.001Z,15.83
2018-09-19T10:07:07.136Z,17.17
2018-09-19T10:09:34.353Z,14.60
2018-09-19T10:12:01.473Z,13.23
2018-09-19T10:14:28.630Z,14.07
2018-09-19T10:16:55.733Z,13.33
2018-09-19T10:19:22.883Z,15.00
2018-09-19T10:21:50.012Z,11.60
2018-09-19T10:24:17.124Z,13.10
2018-09-19T10:26:44.262Z,12.73
2018-09-19T10:29:11.364Z,13.43
2018-09-19T10:31:38.494Z,15.93
2018-09-19T10:34:05.650Z,17.40
2018-09-19T10:36:32.764Z,14.17
2018-09-19T10:38:59.907Z,14.57
2018-09-19T10:41:27.040Z,13.73
2018-09-19T10:43:54.231Z,15.20
2018-09-19T10:46:21.270Z,16.00
2018-09-19T10:48:48.408Z,13.70
2018-09-19T10:51:15.520Z,17.50
2018-09-19T10:53:42.645Z,11.50
2018-09-19T10:56:09.777Z,22.63
2018-09-19T10:58:36.936Z,11.00
2018-09-19T11:01:04.073Z,14.40
2018-09-19T11:03:31.215Z,16.90
2018-09-19T11:05:58.373Z,12.17
2018-09-19T11:08:25.500Z,13.90
2018-09-19T11:10:52.684Z,9.67
2018-09-19T11:13:19.836Z,14.30
2018-09-19T11:15:46.981Z,17.77
2018-09-19T11:18:14.153Z,14.73
2018-09-19T11:20:41.317Z,12.83
2018-09-19T11:23:08.465Z,12.20
2018-09-19T11:25:35.636Z,11.83
2018-09-19T11:28:03.136Z,11.07
2018-09-19T11:30:30.325Z,10.97
2018-09-19T11:32:57.594Z,10.53
2018-09-19T11:35:24.806Z,10.30
2018-09-19T11:37:51.932Z,10.67
2018-09-19T11:40:19.034Z,8.93
2018-09-19T11:42:46.130Z,9.47
2018-09-19T11:45:13.248Z,9.53
2018-09-19T11:47:40.384Z,10.50
2018-09-19T11:50:07.556Z,11.23
2018-09-19T11:52:34.657Z,11.40
2018-09-19T11:55:01.781Z,12.40
2018-09-19T11:57:28.904Z,16.90
2018-09-19T11:59:56.052Z,7.80
2018-09-19T12:02:23.185Z,11.67
2018-09-19T12:04:50.272Z,12.93
2018-09-19T12:07:17.432Z,11.33
2018-09-19T12:09:44.504Z,10.60
2018-09-19T12:12:11.629Z,10.67
2018-09-19T12:14:38.768Z,9.60
2018-09-19T12:17:05.907Z,9.85
2018-09-19T12:19:33.146Z,9.77
2018-09-19T12:22:00.244Z,15.93
2018-09-19T12:24:27.357Z,14.05
2018-09-19T12:26:54.476Z,14.33
2018-09-19T12:29:21.610Z,11.70
2018-09-19T12:31:48.727Z,9.53
2018-09-19T12:34:15.884Z,11.80
2018-09-19T12:36:43.016Z,17.47
2018-09-19T12:39:10.825Z,15.57
2018-09-19T12:41:38.280Z,14.83
2018-09-19T12:44:05.421Z,9.90
2018-09-19T12:46:32.652Z,12.73
2018-09-19T12:48:59.812Z,11.87
2018-09-19T12:51:26.881Z,12.23
2018-09-19T12:53:53.979Z,9.87
2018-09-19T12:56:21.085Z,11.03
2018-09-19T12:58:48.237Z,10.27
2018-09-19T13:01:15.340Z,14.10
2018-09-19T13:03:42.460Z,10.83
2018-09-19T13:06:09.627Z,14.50
2018-09-19T13:08:36.775Z,8.60
2018-09-19T13:11:03.914Z,10.23
2018-09-19T13:13:31.060Z,15.23
2018-09-19T13:15:58.205Z,13.90
2018-09-19T13:18:25.316Z,11.73
2018-09-19T13:20:52.452Z,13.47
2018-09-19T13:23:19.589Z,16.53
2018-09-19T13:25:46.713Z,12.17
2018-09-19T13:28:13.840Z,8.27
2018-09-19T13:30:40.950Z,12.77
2018-09-19T13:33:08.080Z,13.43
2018-09-19T13:35:35.245Z,11.57
2018-09-19T13:38:02.372Z,13.23
2018-09-19T13:40:29.504Z,11.67
2018-09-19T13:42:56.647Z,12.23
2018-09-19T13:45:23.775Z,8.77
2018-09-19T13:47:50.909Z,9.97
2018-09-19T13:50:38.180Z,11.83
2018-09-19T13:53:05.372Z,12.57
2018-09-19T13:55:32.496Z,15.35
2018-09-19T13:57:59.617Z,13.37
2018-09-19T14:00:26.963Z,12.77
2018-09-19T14:02:54.348Z,13.10
2018-09-19T14:05:21.488Z,9.90
2018-09-19T14:07:48.642Z,11.00
2018-09-19T14:10:15.746Z,10.77
2018-09-19T14:12:42.901Z,10.67
2018-09-19T14:15:10.068Z,11.90
2018-09-19T14:17:37.175Z,14.00
2018-09-19T14:20:04.340Z,11.70
2018-09-19T14:22:31.456Z,12.97
2018-09-19T14:24:58.616Z,10.07
2018-09-19T14:27:25.717Z,12.33
2018-09-19T14:29:52.841Z,11.83
2018-09-19T14:32:19.960Z,9.30
2018-09-19T14:34:47.157Z,12.10
2018-09-19T14:37:14.272Z,10.60
2018-09-19T14:39:41.404Z,12.57
2018-09-19T14:42:08.508Z,11.03
2018-09-19T14:44:35.630Z,9.83
2018-09-19T14:47:02.752Z,10.70
2018-09-19T14:49:29.846Z,11.10
2018-09-19T14:51:56.948Z,13.00
2018-09-19T14:54:24.295Z,12.30
2018-09-19T14:56:51.401Z,9.33
2018-09-19T14:59:18.507Z,10.95
2018-09-19T15:01:45.628Z,14.47
2018-09-19T15:04:12.746Z,12.23
2018-09-19T15:06:39.844Z,12.60
2018-09-19T15:09:08.413Z,13.60
2018-09-19T15:11:35.565Z,15.20
2018-09-19T15:14:02.695Z,11.43
2018-09-19T15:16:29.868Z,10.10
2018-09-19T15:18:56.991Z,13.43
2018-09-19T15:21:24.140Z,14.40
2018-09-19T15:23:51.257Z,13.97
2018-09-19T15:26:18.376Z,10.47
2018-09-19T15:28:45.578Z,11.47
2018-09-19T15:31:12.697Z,14.50
2018-09-19T15:33:39.822Z,15.10
2018-09-19T15:36:07.074Z,11.93
2018-09-19T15:38:34.328Z,11.53
2018-09-19T15:41:01.450Z,12.37
2018-09-19T15:43:28.596Z,16.47
2018-09-19T15:45:55.731Z,9.97
2018-09-19T15:48:22.971Z,15.57
2018-09-19T15:50:50.156Z,15.07
2018-09-19T15:53:17.295Z,14.47
2018-09-19T15:55:44.408Z,13.20
2018-09-19T15:58:11.496Z,10.93
2018-09-19T16:00:38.653Z,12.80
2018-09-19T16:03:05.820Z,13.47
2018-09-19T16:05:32.963Z,14.33
2018-09-19T16:08:00.074Z,11.90
2018-09-19T16:10:27.180Z,12.20
2018-09-19T16:12:54.380Z,15.33
2018-09-19T16:15:21.549Z,12.20
2018-09-19T16:17:49.464Z,11.37
2018-09-19T16:20:16.580Z,11.37
2018-09-19T16:22:43.701Z,15.57
2018-09-19T16:25:10.840Z,13.40
2018-09-19T16:27:37.985Z,13.37
2018-09-19T16:30:05.181Z,14.73
2018-09-19T16:32:32.421Z,13.40
2018-09-19T16:34:59.540Z,12.70
2018-09-19T16:37:26.699Z,13.37
2018-09-19T16:39:53.824Z,11.07
2018-09-19T16:42:20.925Z,13.67
2018-09-19T16:44:48.033Z,11.67
2018-09-19T16:47:15.169Z,12.33
2018-09-19T16:49:42.268Z,12.00
2018-09-19T16:52:09.374Z,11.33
2018-09-19T16:54:36.489Z,14.50
2018-09-19T16:57:03.632Z,16.50
2018-09-19T16:59:30.757Z,12.27
2018-09-19T17:01:57.892Z,12.80
2018-09-19T17:04:25.013Z,13.17
2018-09-19T17:06:52.129Z,15.67
2018-09-19T17:09:19.217Z,15.27
2018-09-19T17:11:46.350Z,11.03
2018-09-19T17:14:13.499Z,14.10
2018-09-19T17:16:40.636Z,10.87
2018-09-19T17:19:07.765Z,13.47
2018-09-19T17:21:34.888Z,14.00
2018-09-19T17:24:02.036Z,11.47
2018-09-19T17:26:29.188Z,12.53
2018-09-19T17:28:56.346Z,12.00
2018-09-19T17:31:23.488Z,13.80
2018-09-19T17:33:50.607Z,13.40
2018-09-19T17:36:17.748Z,9.67
2018-09-19T17:38:44.873Z,10.33
2018-09-19T17:41:12.018Z,12.80
2018-09-19T17:43:39.176Z,11.73
2018-09-19T17:46:06.328Z,12.10
2018-09-19T17:48:33.468Z,10.73
2018-09-19T17:51:00.592Z,12.77
2018-09-19T17:53:27.721Z,16.53
2018-09-19T17:55:54.889Z,12.00
2018-09-19T17:58:22.073Z,14.73
2018-09-19T18:00:49.275Z,13.07
2018-09-19T18:03:16.376Z,16.33
2018-09-19T18:05:43.525Z,11.50
2018-09-19T18:08:10.679Z,14.90
2018-09-19T18:10:37.825Z,15.43
2018-09-19T18:13:05.100Z,16.00
2018-09-19T18:15:32.248Z,12.73
2018-09-19T18:17:59.361Z,11.87
2018-09-19T18:20:26.561Z,13.37
2018-09-19T18:22:53.745Z,14.67
2018-09-19T18:25:20.868Z,12.47
2018-09-19T18:27:48.002Z,13.37
2018-09-19T18:30:16.816Z,15.97
2018-09-19T18:32:43.928Z,15.20
2018-09-19T18:35:11.140Z,14.40
2018-09-19T18:37:38.253Z,11.80
2018-09-19T18:40:05.425Z,15.27
2018-09-19T18:42:32.565Z,13.70
2018-09-19T18:44:59.701Z,13.60
2018-09-19T18:47:26.825Z,14.40
2018-09-19T18:49:53.973Z,17.73
2018-09-19T18:52:21.113Z,16.13
2018-09-19T18:54:48.249Z,13.13
2018-09-19T18:57:15.413Z,13.97
2018-09-19T18:59:42.537Z,13.83
2018-09-19T19:02:09.696Z,16.37
2018-09-19T19:04:36.813Z,12.50
2018-09-19T19:07:03.956Z,12.30
2018-09-19T19:09:31.085Z,19.23
2018-09-19T19:11:58.224Z,13.60
2018-09-19T19:14:25.344Z,14.97
2018-09-19T19:16:52.464Z,13.80
2018-09-19T19:19:19.586Z,17.33
2018-09-19T19:21:46.749Z,18.13
2018-09-19T19:24:13.884Z,14.80
2018-09-19T19:26:40.998Z,17.37
2018-09-19T19:29:08.130Z,13.50
2018-09-19T19:31:35.257Z,13.63
2018-09-19T19:34:02.408Z,15.47
2018-09-19T19:36:29.551Z,14.97
2018-09-19T19:38:56.701Z,13.00
2018-09-19T19:41:23.828Z,13.83
2018-09-19T19:43:50.965Z,13.30
2018-09-19T19:46:18.116Z,16.27
2018-09-19T19:48:45.240Z,12.73
2018-09-19T19:51:12.394Z,14.57
2018-09-19T19:53:39.524Z,13.07
2018-09-19T19:56:06.704Z,14.23
2018-09-19T19:58:33.869Z,13.67
2018-09-19T20:01:01.006Z,13.10
2018-09-19T20:03:28.168Z,15.63
2018-09-19T20:05:55.293Z,16.17
2018-09-19T20:08:22.412Z,14.50
2018-09-19T20:10:49.541Z,11.93
2018-09-19T20:13:16.669Z,13.80
2018-09-19T20:15:43.789Z,11.73
2018-09-19T20:18:10.921Z,15.90
2018-09-19T20:20:38.068Z,12.83
2018-09-19T20:23:05.587Z,12.47
2018-09-19T20:25:32.673Z,15.30
2018-09-19T20:27:59.820Z,13.23
2018-09-19T20:30:26.956Z,13.43
2018-09-19T20:32:54.101Z,13.73
2018-09-19T20:35:21.588Z,11.53
2018-09-19T20:37:48.735Z,10.57
2018-09-19T20:40:15.876Z,12.00
2018-09-19T20:42:42.989Z,17.90
2018-09-19T20:45:10.112Z,12.23
2018-09-19T20:47:37.241Z,10.57
2018-09-19T20:50:04.384Z,14.37
2018-09-19T20:52:31.517Z,16.53
2018-09-19T20:54:58.644Z,13.53
2018-09-19T20:57:25.776Z,15.00
2018-09-19T20:59:52.947Z,11.23
2018-09-19T21:02:20.096Z,18.10
2018-09-19T21:04:47.312Z,14.60
2018-09-19T21:07:14.352Z,13.90
2018-09-19T21:09:41.552Z,11.77
2018-09-19T21:12:08.772Z,13.80
2018-09-19T21:14:35.888Z,11.40
2018-09-19T21:17:03.061Z,11.03
2018-09-19T21:19:30.204Z,14.33
2018-09-19T21:21:57.423Z,12.73
2018-09-19T21:24:24.500Z,10.27
2018-09-19T21:26:51.628Z,9.93
2018-09-19T21:29:18.776Z,12.40
2018-09-19T21:31:45.905Z,11.27
2018-09-19T21:34:13.062Z,10.83
2018-09-19T21:36:40.219Z,14.20
2018-09-19T21:39:08.312Z,12.53
2018-09-19T21:41:35.772Z,14.53
2018-09-19T21:44:02.910Z,11.87
2018-09-19T21:46:30.033Z,10.23
2018-09-19T21:48:57.225Z,15.43
2018-09-19T21:51:24.341Z,11.80
2018-09-19T21:53:51.464Z,11.23
2018-09-19T21:56:18.582Z,11.27
2018-09-19T21:58:45.699Z,14.33
2018-09-19T22:01:12.876Z,11.77
2018-09-19T22:03:40.864Z,10.60
2018-09-19T22:06:08.140Z,12.20
2018-09-19T22:08:36.260Z,9.03
2018-09-19T22:11:03.736Z,11.23
2018-09-19T22:13:30.876Z,12.37
2018-09-19T22:15:58.016Z,13.50
2018-09-19T22:18:25.189Z,11.43
2018-09-19T22:20:52.324Z,10.17
2018-09-19T22:23:19.456Z,11.07
2018-09-19T22:25:46.564Z,13.33
2018-09-19T22:28:13.716Z,10.10
2018-09-19T22:30:40.863Z,13.27
2018-09-19T22:33:08.522Z,12.03
2018-09-19T22:35:35.660Z,11.87
2018-09-19T22:38:02.823Z,10.13
2018-09-19T22:40:29.966Z,12.60
2018-09-19T22:42:57.112Z,9.33
2018-09-19T22:45:24.288Z,11.77
2018-09-19T22:47:51.421Z,10.63
2018-09-19T22:50:18.596Z,11.23
2018-09-19T22:52:45.724Z,10.23
2018-09-19T22:55:12.845Z,10.80
2018-09-19T22:57:39.987Z,10.23
2018-09-19T23:00:07.132Z,11.83
2018-09-19T23:02:34.288Z,11.77
2018-09-19T23:05:01.429Z,12.33
2018-09-19T23:07:28.580Z,10.17
2018-09-19T23:09:55.707Z,14.27
2018-09-19T23:12:22.840Z,13.13
2018-09-19T23:14:49.969Z,11.03
2018-09-19T23:17:17.119Z,10.83
2018-09-19T23:19:44.268Z,10.73
2018-09-19T23:22:11.411Z,12.13
2018-09-19T23:24:38.548Z,10.67
2018-09-19T23:27:05.690Z,13.47
2018-09-19T23:29:32.863Z,7.93
2018-09-19T23:32:00.097Z,10.67
2018-09-19T23:34:27.224Z,11.50
2018-09-19T23:36:54.396Z,12.57
2018-09-19T23:39:21.548Z,12.23
2018-09-19T23:41:48.762Z,12.80
2018-09-19T23:44:15.892Z,9.43
2018-09-19T23:46:43.012Z,14.70
2018-09-19T23:49:10.139Z,15.83
2018-09-19T23:51:37.304Z,13.20
2018-09-19T23:54:04.428Z,10.97
2018-09-19T23:56:31.544Z,13.57
2018-09-19T23:58:58.745Z,15.80
